Time;durP1;ratioP1;P1;durP2;ratioP2;P2;SDS_P1;SDS_P2;PMS_P1;PMS_P2;Temp;Humidity;BMP_temperature;BMP_pressure;BME280_temperature;BME280_humidity;BME280_pressure;Samples;Min_cycle;Max_cycle;Signal;HPM_P1;HPM_P2
2022/07/01 00:00:59;;;;;;;13.48;4.38;;;25.90;69.40;;;;;;5115732;28;20460;-69
2022/07/01 00:03:25;;;;;;;14.65;4.65;;;25.80;69.30;;;;;;5115126;28;20138;-65
2022/07/01 00:05:50;;;;;;;16.95;5.00;;;25.80;68.90;;;;;;5115692;28;20055;-68
2022/07/01 00:08:17;;;;;;;15.07;3.65;;;25.80;69.20;;;;;;5115851;28;20500;-65
2022/07/01 00:10:42;;;;;;;11.50;4.10;;;25.80;69.30;;;;;;5115820;28;20043;-65
2022/07/01 00:13:08;;;;;;;17.63;3.80;;;25.70;69.80;;;;;;5115398;28;20108;-64
2022/07/01 00:15:34;;;;;;;15.48;5.28;;;25.60;69.60;;;;;;5115337;28;20114;-69
2022/07/01 00:18:00;;;;;;;11.57;4.57;;;25.60;69.50;;;;;;5115508;28;20400;-65
2022/07/01 00:20:25;;;;;;;16.42;4.10;;;25.60;69.80;;;;;;5115418;28;20028;-69
2022/07/01 00:22:51;;;;;;;11.35;3.70;;;25.50;69.80;;;;;;5115340;28;20500;-65
2022/07/01 00:25:17;;;;;;;14.68;4.03;;;25.50;70.10;;;;;;5115528;28;20035;-64
2022/07/01 00:27:43;;;;;;;16.05;4.45;;;25.40;70.10;;;;;;5114964;28;20035;-65
2022/07/01 00:30:10;;;;;;;15.90;5.22;;;25.50;70.40;;;;;;5115410;28;20082;-65
2022/07/01 00:32:36;;;;;;;14.95;4.20;;;25.40;70.30;;;;;;5115134;28;20481;-66
2022/07/01 00:35:02;;;;;;;16.50;4.45;;;25.40;70.10;;;;;;5115071;28;20049;-69
2022/07/01 00:37:28;;;;;;;11.27;4.30;;;25.40;70.80;;;;;;5115134;28;20028;-65
2022/07/01 00:39:53;;;;;;;12.38;3.70;;;25.40;69.70;;;;;;5115078;28;20508;-69
2022/07/01 00:42:19;;;;;;;16.92;4.10;;;25.40;69.60;;;;;;5115187;28;20039;-65
2022/07/01 00:44:45;;;;;;;15.13;3.55;;;25.40;69.30;;;;;;5115061;28;20043;-65
2022/07/01 00:47:13;;;;;;;8.13;3.22;;;25.40;68.80;;;;;;5114879;28;20470;-65
2022/07/01 00:49:39;;;;;;;12.73;3.63;;;25.40;69.10;;;;;;5114702;28;20040;-66
2022/07/01 00:52:07;;;;;;;13.45;3.75;;;25.40;68.40;;;;;;5114603;28;20036;-69
2022/07/01 00:54:36;;;;;;;19.63;3.78;;;25.40;67.80;;;;;;5114889;28;20035;-65
2022/07/01 00:57:07;;;;;;;12.90;3.83;;;25.50;67.60;;;;;;5114723;28;20040;-65
2022/07/01 00:59:34;;;;;;;15.25;4.38;;;25.50;68.30;;;;;;5111507;28;20069;-66
2022/07/01 01:02:00;;;;;;;13.80;3.75;;;25.50;68.30;;;;;;5111699;28;20044;-65
2022/07/01 01:04:26;;;;;;;12.10;3.80;;;25.40;68.70;;;;;;5112596;28;20130;-65
2022/07/01 01:06:51;;;;;;;12.18;3.88;;;25.50;68.90;;;;;;5114385;28;20062;-69
2022/07/01 01:09:17;;;;;;;11.82;3.50;;;25.40;68.90;;;;;;5114679;28;20419;-65
2022/07/01 01:11:43;;;;;;;13.25;3.80;;;25.40;68.90;;;;;;5114538;28;20530;-65
2022/07/01 01:14:09;;;;;;;11.07;3.53;;;25.40;68.60;;;;;;5113821;28;20032;-65
2022/07/01 01:16:35;;;;;;;16.15;4.18;;;25.30;68.80;;;;;;5114012;28;20055;-66
2022/07/01 01:19:05;;;;;;;12.23;3.95;;;25.30;68.80;;;;;;5114304;28;20160;-65
2022/07/01 01:21:32;;;;;;;13.13;4.15;;;25.30;69.00;;;;;;5114316;28;20408;-67
2022/07/01 01:23:58;;;;;;;17.48;4.60;;;25.30;69.10;;;;;;5113805;28;20104;-63
2022/07/01 01:26:25;;;;;;;10.68;3.85;;;25.30;68.80;;;;;;5114149;28;20036;-64
2022/07/01 01:28:51;;;;;;;15.20;4.78;;;25.20;69.20;;;;;;5113707;28;20031;-64
2022/07/01 01:31:17;;;;;;;14.70;4.22;;;25.20;69.40;;;;;;5114000;28;20039;-65
2022/07/01 01:33:44;;;;;;;13.85;4.30;;;25.20;69.30;;;;;;5114054;28;20167;-63
2022/07/01 01:36:10;;;;;;;13.40;4.05;;;25.20;70.10;;;;;;5113834;28;20112;-67
2022/07/01 01:38:37;;;;;;;16.67;4.60;;;25.10;69.80;;;;;;5113960;28;20043;-64
2022/07/01 01:41:04;;;;;;;14.95;4.47;;;25.00;69.70;;;;;;5114087;28;20039;-63
2022/07/01 01:43:29;;;;;;;11.55;4.30;;;25.00;70.00;;;;;;5113739;28;20044;-68
2022/07/01 01:45:55;;;;;;;12.82;3.63;;;25.00;69.70;;;;;;5113964;28;20031;-63
2022/07/01 01:48:21;;;;;;;19.38;4.25;;;25.00;69.70;;;;;;5114139;28;20036;-67
2022/07/01 01:50:46;;;;;;;17.30;4.15;;;25.00;69.70;;;;;;5114052;28;20122;-64
2022/07/01 01:53:12;;;;;;;15.93;4.05;;;25.00;70.10;;;;;;5113616;28;20561;-65
2022/07/01 01:55:38;;;;;;;15.25;4.00;;;24.90;70.30;;;;;;5113598;28;20107;-65
2022/07/01 01:58:03;;;;;;;11.70;3.65;;;24.90;70.00;;;;;;5113349;28;20031;-67
2022/07/01 02:00:29;;;;;;;14.73;4.18;;;24.80;70.20;;;;;;5113730;28;20028;-64
2022/07/01 02:02:55;;;;;;;13.73;4.10;;;24.80;70.00;;;;;;5113643;28;20438;-65
2022/07/01 02:05:21;;;;;;;19.92;4.68;;;24.90;70.00;;;;;;5113541;28;20040;-65
2022/07/01 02:07:47;;;;;;;12.80;3.75;;;24.80;70.40;;;;;;5113603;28;20051;-65
2022/07/01 02:10:12;;;;;;;15.18;4.07;;;24.80;70.60;;;;;;5113126;28;20390;-65
2022/07/01 02:12:38;;;;;;;16.20;4.32;;;24.80;70.30;;;;;;5113436;28;20031;-64
2022/07/01 02:15:04;;;;;;;14.88;4.00;;;24.80;70.20;;;;;;5113514;28;20028;-64
2022/07/01 02:17:30;;;;;;;9.90;3.88;;;24.70;70.70;;;;;;5112926;28;20047;-69
2022/07/01 02:19:55;;;;;;;20.50;4.28;;;24.70;71.10;;;;;;5113376;28;20354;-68
2022/07/01 02:22:21;;;;;;;13.80;3.55;;;24.70;71.00;;;;;;5113415;28;20052;-65
2022/07/01 02:24:47;;;;;;;13.27;4.15;;;24.70;70.30;;;;;;5113146;28;20047;-68
2022/07/01 02:27:13;;;;;;;10.30;3.75;;;24.70;70.10;;;;;;5113154;28;20477;-66
2022/07/01 02:29:39;;;;;;;8.73;4.28;;;24.70;70.20;;;;;;5113182;28;20035;-65
2022/07/01 02:32:05;;;;;;;13.55;3.63;;;24.70;70.00;;;;;;5113543;28;20027;-65
2022/07/01 02:34:30;;;;;;;9.30;4.25;;;24.70;70.30;;;;;;5113070;28;20031;-64
2022/07/01 02:36:56;;;;;;;16.50;4.28;;;24.70;70.40;;;;;;5113504;28;20042;-67
2022/07/01 02:39:22;;;;;;;17.27;4.18;;;24.60;70.40;;;;;;5113367;28;20035;-65
2022/07/01 02:44:34;;;;;;;15.70;3.70;;;24.60;71.00;;;;;;5112996;28;20543;-65
2022/07/01 02:47:00;;;;;;;15.43;3.83;;;24.50;70.70;;;;;;5113191;28;20035;-65
2022/07/01 02:49:26;;;;;;;13.13;4.22;;;24.60;70.90;;;;;;5113079;28;20393;-68
2022/07/01 02:51:52;;;;;;;18.88;3.80;;;24.50;70.90;;;;;;5113042;28;20465;-65
2022/07/01 02:54:17;;;;;;;13.43;4.43;;;24.50;70.70;;;;;;5113006;28;20032;-64
2022/07/01 02:56:43;;;;;;;11.27;4.00;;;24.50;70.70;;;;;;5114149;28;20493;-65
2022/07/01 02:59:09;;;;;;;15.38;4.30;;;24.50;70.70;;;;;;5111939;28;20509;-65
2022/07/01 03:01:34;;;;;;;12.32;3.58;;;24.50;70.40;;;;;;5113061;28;20050;-64
2022/07/01 03:04:00;;;;;;;13.30;3.95;;;24.50;70.00;;;;;;5112950;28;20043;-65
2022/07/01 03:06:26;;;;;;;14.65;3.55;;;24.50;70.00;;;;;;5115192;28;20483;-64
2022/07/01 03:08:52;;;;;;;13.80;4.18;;;24.50;70.10;;;;;;5116933;27;20035;-64
2022/07/01 03:11:18;;;;;;;10.80;3.20;;;24.50;69.70;;;;;;5116840;28;20032;-64
2022/07/01 03:13:44;;;;;;;15.80;3.75;;;24.60;69.80;;;;;;5116769;28;20047;-68
2022/07/01 03:16:10;;;;;;;10.68;3.60;;;24.50;69.70;;;;;;5116802;28;20043;-68
2022/07/01 03:18:36;;;;;;;13.23;3.35;;;24.50;69.60;;;;;;5116758;28;20038;-64
2022/07/01 03:21:02;;;;;;;14.32;4.00;;;24.60;69.70;;;;;;5116488;28;20480;-65
2022/07/01 03:23:27;;;;;;;16.83;4.03;;;24.50;69.50;;;;;;5116343;28;20043;-64
2022/07/01 03:25:53;;;;;;;12.93;3.55;;;24.50;69.40;;;;;;5116422;28;20059;-65
2022/07/01 03:28:19;;;;;;;17.55;3.60;;;24.50;70.20;;;;;;5116638;28;20032;-65
2022/07/01 03:30:45;;;;;;;11.55;3.83;;;24.50;69.80;;;;;;5116408;28;20556;-64
2022/07/01 03:33:11;;;;;;;11.77;4.00;;;24.50;70.00;;;;;;5116483;28;20063;-65
2022/07/01 03:35:39;;;;;;;12.73;3.20;;;24.50;69.90;;;;;;5116625;28;20507;-65
2022/07/01 03:38:05;;;;;;;14.40;3.80;;;24.40;69.70;;;;;;5116328;28;20504;-65
2022/07/01 03:40:34;;;;;;;13.75;3.90;;;24.40;69.90;;;;;;5116499;28;20035;-65
2022/07/01 03:43:00;;;;;;;16.00;4.15;;;24.40;69.90;;;;;;5115899;28;20542;-68
2022/07/01 03:45:26;;;;;;;11.38;3.40;;;24.40;69.90;;;;;;5116409;28;20035;-65
2022/07/01 03:47:52;;;;;;;13.90;4.00;;;24.40;70.10;;;;;;5116397;27;20046;-66
2022/07/01 03:50:21;;;;;;;17.48;4.10;;;24.40;69.40;;;;;;5116136;28;20071;-65
2022/07/01 03:52:46;;;;;;;14.40;3.60;;;24.40;70.00;;;;;;5115695;28;20496;-64
2022/07/01 03:55:13;;;;;;;11.00;3.90;;;24.40;69.90;;;;;;5116097;28;20024;-64
2022/07/01 03:57:39;;;;;;;12.82;3.65;;;24.40;69.70;;;;;;5115821;28;20096;-64
2022/07/01 04:00:06;;;;;;;14.13;3.58;;;24.40;69.40;;;;;;5115610;28;20416;-65
2022/07/01 04:02:32;;;;;;;19.70;3.78;;;24.30;69.40;;;;;;5116150;28;20453;-64
2022/07/01 04:04:58;;;;;;;11.60;3.75;;;24.30;69.40;;;;;;5115555;28;20118;-65
2022/07/01 04:07:24;;;;;;;17.00;3.80;;;24.40;69.90;;;;;;5115848;28;20038;-64
2022/07/01 04:09:51;;;;;;;14.45;4.88;;;24.40;70.30;;;;;;5114527;28;20123;-64
2022/07/01 04:12:17;;;;;;;12.52;3.92;;;24.40;70.40;;;;;;5115672;28;20515;-64
2022/07/01 04:14:42;;;;;;;16.05;3.30;;;24.40;70.00;;;;;;5115726;28;20036;-64
2022/07/01 04:17:08;;;;;;;13.63;3.40;;;24.40;69.30;;;;;;5115248;28;20044;-65
2022/07/01 04:19:35;;;;;;;12.68;3.47;;;24.40;69.30;;;;;;5115504;28;20416;-68
2022/07/01 04:24:45;;;;;;;9.40;3.55;;;24.30;69.40;;;;;;5115227;28;20043;-65
2022/07/01 04:27:11;;;;;;;14.13;3.40;;;24.40;69.30;;;;;;5115382;28;20401;-65
2022/07/01 04:29:37;;;;;;;10.98;3.40;;;24.40;69.40;;;;;;5115350;28;20039;-64
2022/07/01 04:32:02;;;;;;;11.52;3.83;;;24.40;69.00;;;;;;5115283;28;20035;-68
2022/07/01 04:34:28;;;;;;;15.77;3.25;;;24.50;68.40;;;;;;5115175;28;20028;-64
2022/07/01 04:36:55;;;;;;;12.85;3.00;;;24.50;68.40;;;;;;5115116;28;20039;-65
2022/07/01 04:39:21;;;;;;;9.90;3.58;;;24.50;69.00;;;;;;5115092;28;20451;-65
2022/07/01 04:41:59;;;;;;;14.80;3.30;;;24.50;69.00;;;;;;5114984;28;20122;-65
2022/07/01 04:44:25;;;;;;;15.90;3.10;;;24.60;68.40;;;;;;5115136;28;20043;-65
2022/07/01 04:46:51;;;;;;;39.70;6.20;;;24.50;68.10;;;;;;5114855;27;20385;-64
2022/07/01 04:49:16;;;;;;;39.78;7.68;;;24.60;69.10;;;;;;5114740;28;20036;-65
2022/07/01 04:51:42;;;;;;;32.80;8.05;;;24.60;69.50;;;;;;5114659;28;20397;-65
2022/07/01 04:54:09;;;;;;;39.05;6.70;;;24.60;70.10;;;;;;5115146;28;20046;-65
2022/07/01 04:56:37;;;;;;;32.58;6.03;;;24.50;70.40;;;;;;5114923;28;20065;-65
2022/07/01 04:59:03;;;;;;;43.22;6.65;;;24.60;70.70;;;;;;5114750;28;20038;-71
2022/07/01 05:01:29;;;;;;;124.28;10.68;;;24.60;70.50;;;;;;5114375;28;20035;-67
2022/07/01 05:03:56;;;;;;;121.72;9.25;;;24.60;70.40;;;;;;5114910;28;20044;-69
2022/07/01 05:06:22;;;;;;;81.20;8.93;;;24.70;70.40;;;;;;5114335;28;20515;-65
2022/07/01 05:08:47;;;;;;;42.47;5.95;;;24.70;70.30;;;;;;5114199;28;20040;-65
2022/07/01 05:11:13;;;;;;;28.63;4.85;;;24.70;70.60;;;;;;5114054;28;20059;-65
2022/07/01 05:13:39;;;;;;;26.30;5.13;;;24.70;70.80;;;;;;5113178;28;20110;-64
2022/07/01 05:16:06;;;;;;;26.88;5.20;;;24.80;70.70;;;;;;5113161;28;20046;-65
2022/07/01 05:24:00;;;;;;;17.27;4.75;;;24.90;71.20;;;;;;5112465;28;20073;-65
2022/07/01 05:26:26;;;;;;;21.35;4.95;;;24.90;71.60;;;;;;5112849;28;20036;-65
2022/07/01 05:28:53;;;;;;;35.08;4.65;;;24.90;70.80;;;;;;5113201;28;20496;-65
2022/07/01 05:31:19;;;;;;;18.08;4.22;;;24.90;70.70;;;;;;5113569;28;20027;-64
2022/07/01 05:33:44;;;;;;;16.30;3.85;;;25.00;70.60;;;;;;5113749;28;20032;-65
2022/07/01 05:36:10;;;;;;;19.45;3.92;;;25.00;70.40;;;;;;5113943;28;20089;-64
2022/07/01 05:38:36;;;;;;;20.50;4.78;;;25.00;70.30;;;;;;5113269;28;20031;-65
2022/07/01 05:41:02;;;;;;;19.08;3.92;;;25.10;70.30;;;;;;5113805;28;20061;-65
2022/07/01 05:43:29;;;;;;;13.40;4.00;;;25.10;70.30;;;;;;5113420;28;20043;-65
2022/07/01 05:45:55;;;;;;;14.25;3.55;;;25.10;69.80;;;;;;5111144;28;20037;-70
2022/07/01 05:48:21;;;;;;;14.90;4.13;;;25.10;69.50;;;;;;5113087;28;20035;-63
2022/07/01 05:50:47;;;;;;;19.20;4.45;;;25.20;69.70;;;;;;5113354;28;20034;-64
2022/07/01 05:53:13;;;;;;;23.15;4.28;;;25.20;69.80;;;;;;5112888;28;20051;-62
2022/07/01 05:55:42;;;;;;;19.17;4.75;;;25.30;69.80;;;;;;5112933;28;20028;-64
2022/07/01 05:58:10;;;;;;;22.80;4.47;;;25.30;69.30;;;;;;5113448;28;20036;-63
2022/07/01 06:00:36;;;;;;;16.98;3.90;;;25.40;69.30;;;;;;5113086;28;20036;-62
2022/07/01 06:03:02;;;;;;;15.98;4.22;;;25.40;69.40;;;;;;5112980;28;20039;-63
2022/07/01 06:05:29;;;;;;;15.77;3.83;;;25.40;69.00;;;;;;5112890;28;20469;-63
2022/07/01 06:07:55;;;;;;;15.95;4.03;;;25.50;68.40;;;;;;5112831;28;20451;-64
2022/07/01 06:10:21;;;;;;;14.82;3.55;;;25.50;68.20;;;;;;5112240;28;20143;-63
2022/07/01 06:12:46;;;;;;;19.75;4.20;;;25.60;68.20;;;;;;5113316;28;20526;-64
2022/07/01 06:15:12;;;;;;;13.13;3.17;;;25.60;67.90;;;;;;5113184;28;20043;-65
2022/07/01 06:17:40;;;;;;;13.13;3.58;;;25.70;67.80;;;;;;5112833;28;20468;-64
2022/07/01 06:20:07;;;;;;;11.27;3.20;;;25.70;67.50;;;;;;5113279;28;20067;-64
2022/07/01 06:22:33;;;;;;;9.50;3.17;;;25.80;67.60;;;;;;5113244;28;20023;-63
2022/07/01 06:24:59;;;;;;;13.20;3.40;;;25.80;67.60;;;;;;5113028;28;20042;-64
2022/07/01 06:27:25;;;;;;;14.60;3.55;;;25.90;67.40;;;;;;5112892;28;20028;-64
2022/07/01 06:29:51;;;;;;;9.75;3.03;;;25.90;67.60;;;;;;5113522;28;20032;-64
2022/07/01 06:32:17;;;;;;;12.68;3.50;;;26.00;67.70;;;;;;5113487;28;20527;-64
2022/07/01 06:34:43;;;;;;;14.43;3.20;;;26.10;67.40;;;;;;5113414;28;20039;-64
2022/07/01 06:37:09;;;;;;;14.88;3.30;;;26.10;68.00;;;;;;5113121;28;20492;-64
2022/07/01 06:39:34;;;;;;;14.38;3.38;;;26.20;67.10;;;;;;5113873;28;20043;-65
2022/07/01 06:42:00;;;;;;;15.82;3.33;;;26.20;66.80;;;;;;5117543;28;20381;-64
2022/07/01 06:44:26;;;;;;;19.95;3.78;;;26.30;66.40;;;;;;5117438;28;20118;-64
2022/07/01 06:46:52;;;;;;;15.60;3.28;;;26.30;66.00;;;;;;5117403;28;20027;-64
2022/07/01 06:49:17;;;;;;;10.63;2.83;;;26.40;65.80;;;;;;5116751;28;20405;-63
2022/07/01 06:51:43;;;;;;;13.30;3.28;;;26.50;65.30;;;;;;5116954;28;20477;-64
2022/07/01 06:54:09;;;;;;;11.15;2.63;;;26.50;65.20;;;;;;5116888;28;20393;-64
2022/07/01 06:56:35;;;;;;;11.02;3.50;;;26.60;65.50;;;;;;5117577;27;20039;-65
2022/07/01 06:59:01;;;;;;;11.77;2.70;;;26.60;65.50;;;;;;5117437;28;20097;-64
2022/07/01 07:01:28;;;;;;;17.42;3.10;;;26.70;65.50;;;;;;5117246;27;20469;-64
2022/07/01 07:03:54;;;;;;;16.33;3.15;;;26.70;65.40;;;;;;5117260;28;20036;-65
2022/07/01 07:06:20;;;;;;;14.15;3.00;;;26.80;65.80;;;;;;5116473;28;20389;-64
2022/07/01 07:08:45;;;;;;;11.38;2.75;;;26.90;65.20;;;;;;5115910;28;20036;-64
2022/07/01 07:11:12;;;;;;;14.07;3.40;;;27.00;65.00;;;;;;5116843;28;20027;-64
2022/07/01 07:13:38;;;;;;;10.15;3.20;;;27.00;64.70;;;;;;5116972;28;20059;-63
2022/07/01 07:16:04;;;;;;;10.02;2.70;;;27.10;64.80;;;;;;5117030;28;20048;-64
2022/07/01 07:18:30;;;;;;;12.50;3.22;;;27.10;64.20;;;;;;5116825;28;20042;-64
2022/07/01 07:20:55;;;;;;;13.88;3.03;;;27.20;64.40;;;;;;5116862;28;20027;-64
2022/07/01 07:23:22;;;;;;;20.25;3.60;;;27.30;64.70;;;;;;5116877;28;20039;-65
2022/07/01 07:25:48;;;;;;;14.70;3.33;;;27.30;64.70;;;;;;5116882;28;20408;-64
2022/07/01 07:28:14;;;;;;;16.90;3.47;;;27.40;64.80;;;;;;5116791;28;20107;-64
2022/07/01 07:30:39;;;;;;;12.75;2.85;;;27.50;63.60;;;;;;5116790;28;20077;-64
2022/07/01 07:33:05;;;;;;;11.43;3.05;;;27.50;63.30;;;;;;5116829;28;20070;-64
2022/07/01 07:35:31;;;;;;;12.80;2.60;;;27.60;63.30;;;;;;5116408;28;20465;-64
2022/07/01 07:37:56;;;;;;;20.85;3.05;;;27.60;63.10;;;;;;5116553;28;20027;-64
2022/07/01 07:40:22;;;;;;;14.95;3.13;;;27.70;63.30;;;;;;5116395;28;20032;-64
2022/07/01 07:42:48;;;;;;;8.43;2.72;;;27.80;62.50;;;;;;5116674;28;20150;-64
2022/07/01 07:45:15;;;;;;;10.52;2.92;;;27.80;61.90;;;;;;5116609;28;20236;-64
2022/07/01 07:47:46;;;;;;;13.48;3.78;;;27.90;62.60;;;;;;5116407;28;20110;-64
2022/07/01 07:50:12;;;;;;;11.98;3.38;;;28.00;63.10;;;;;;5116293;28;20035;-64
2022/07/01 07:52:39;;;;;;;15.82;3.67;;;28.10;62.50;;;;;;5115613;28;20027;-64
2022/07/01 07:55:07;;;;;;;10.98;2.90;;;28.10;62.30;;;;;;5116294;27;20034;-63
2022/07/01 07:57:33;;;;;;;11.50;4.22;;;28.20;62.50;;;;;;5116349;28;20050;-64
2022/07/01 07:59:59;;;;;;;13.77;3.72;;;28.20;62.40;;;;;;5116373;28;20047;-63
2022/07/01 08:02:25;;;;;;;22.55;3.13;;;28.30;62.50;;;;;;5116210;28;20031;-64
2022/07/01 08:04:51;;;;;;;15.18;3.42;;;28.30;62.50;;;;;;5115736;28;20429;-64
2022/07/01 08:07:16;;;;;;;15.48;2.85;;;28.30;63.10;;;;;;5116131;28;20027;-63
2022/07/01 08:09:46;;;;;;;13.88;3.35;;;28.40;62.50;;;;;;5115919;28;20040;-64
2022/07/01 08:12:12;;;;;;;14.68;3.42;;;28.40;61.80;;;;;;5115977;28;20477;-64
2022/07/01 08:14:38;;;;;;;15.18;3.30;;;28.50;61.90;;;;;;5115827;28;20049;-64
2022/07/01 08:17:04;;;;;;;16.67;3.72;;;28.60;62.80;;;;;;5115812;28;20039;-64
2022/07/01 08:19:30;;;;;;;19.95;3.95;;;28.60;62.70;;;;;;5115680;28;20040;-63
2022/07/01 08:21:56;;;;;;;13.75;3.35;;;28.70;61.80;;;;;;5115596;28;20030;-64
2022/07/01 08:24:22;;;;;;;13.27;4.07;;;28.70;62.00;;;;;;5115575;28;20043;-64
2022/07/01 08:26:47;;;;;;;9.90;3.65;;;28.80;62.40;;;;;;5114331;28;20027;-64
2022/07/01 08:29:13;;;;;;;12.88;3.92;;;28.80;61.80;;;;;;5115579;28;20035;-64
2022/07/01 08:31:39;;;;;;;16.58;3.65;;;28.90;61.70;;;;;;5115499;28;20036;-63
2022/07/01 08:34:05;;;;;;;17.50;3.95;;;29.00;62.20;;;;;;5115414;28;20032;-63
2022/07/01 08:36:30;;;;;;;16.25;3.40;;;29.10;61.40;;;;;;5115402;28;20031;-64
2022/07/01 08:38:56;;;;;;;21.95;3.95;;;29.20;60.70;;;;;;5115339;28;20031;-64
2022/07/01 08:41:22;;;;;;;14.50;3.42;;;29.20;60.20;;;;;;5115297;28;20031;-64
2022/07/01 08:43:47;;;;;;;15.10;3.40;;;29.30;59.90;;;;;;5115259;28;20051;-63
2022/07/01 08:46:13;;;;;;;21.90;4.20;;;29.30;59.90;;;;;;5115297;28;20110;-63
2022/07/01 08:48:45;;;;;;;26.00;4.72;;;29.40;59.90;;;;;;5115044;28;20039;-64
2022/07/01 08:51:11;;;;;;;15.00;3.58;;;29.40;59.40;;;;;;5115443;28;20081;-63
2022/07/01 08:53:37;;;;;;;14.73;3.75;;;29.50;59.00;;;;;;5115298;28;20092;-63
2022/07/01 08:58:49;;;;;;;15.48;3.70;;;29.70;58.70;;;;;;5115144;28;20457;-64
2022/07/01 09:01:16;;;;;;;17.58;4.07;;;29.80;58.10;;;;;;5114876;28;20034;-63
2022/07/01 09:03:44;;;;;;;15.68;3.05;;;29.80;58.10;;;;;;5113750;28;20503;-64
2022/07/01 09:06:15;;;;;;;14.00;3.22;;;29.80;57.00;;;;;;5114732;28;20036;-63
2022/07/01 09:08:46;;;;;;;18.25;2.92;;;30.00;56.40;;;;;;5114880;28;20028;-63
2022/07/01 09:11:16;;;;;;;16.53;3.23;;;30.00;55.10;;;;;;5114646;28;20053;-63
2022/07/01 09:13:42;;;;;;;15.27;3.20;;;30.10;54.30;;;;;;5114581;28;20084;-64
2022/07/01 09:16:16;;;;;;;13.95;3.15;;;30.10;53.50;;;;;;5114781;28;20073;-63
2022/07/01 09:19:00;;;;;;;11.98;2.85;;;30.20;54.50;;;;;;5114788;28;20481;-63
2022/07/01 09:21:29;;;;;;;11.27;2.90;;;30.20;53.80;;;;;;5114649;28;20035;-63
2022/07/01 09:23:55;;;;;;;12.63;3.17;;;30.30;53.00;;;;;;5114376;28;20567;-64
2022/07/01 09:26:21;;;;;;;11.13;3.00;;;30.40;51.70;;;;;;5114735;28;20111;-64
2022/07/01 09:28:56;;;;;;;14.00;3.42;;;30.40;51.60;;;;;;5114375;28;20114;-63
2022/07/01 09:31:34;;;;;;;12.90;3.40;;;30.40;51.60;;;;;;5114298;28;20028;-64
2022/07/01 09:34:08;;;;;;;13.18;2.88;;;30.40;52.40;;;;;;5114252;28;20043;-63
2022/07/01 09:36:41;;;;;;;12.18;3.00;;;30.50;51.80;;;;;;5114140;28;20032;-64
2022/07/01 09:39:07;;;;;;;21.23;3.10;;;30.50;49.90;;;;;;5114525;28;20078;-64
2022/07/01 09:41:37;;;;;;;8.70;2.90;;;30.50;49.00;;;;;;5114405;28;20084;-64
2022/07/01 09:44:09;;;;;;;13.73;2.78;;;30.60;49.40;;;;;;5114050;28;20079;-63
2022/07/01 09:46:36;;;;;;;17.73;4.10;;;30.60;48.80;;;;;;5114070;28;20069;-63
2022/07/01 09:49:02;;;;;;;13.63;2.67;;;30.70;48.90;;;;;;5113878;28;20042;-64
2022/07/01 09:51:29;;;;;;;11.20;2.47;;;30.70;49.50;;;;;;5114073;28;20036;-64
2022/07/01 09:53:56;;;;;;;22.67;4.05;;;30.80;48.60;;;;;;5114307;28;20477;-63
2022/07/01 09:56:23;;;;;;;16.83;3.25;;;30.90;50.00;;;;;;5114117;28;20378;-64
2022/07/01 09:58:49;;;;;;;12.90;3.20;;;31.00;51.90;;;;;;5113833;28;20061;-63
2022/07/01 10:01:15;;;;;;;10.70;3.15;;;31.10;52.10;;;;;;5114031;28;20024;-64
2022/07/01 10:03:41;;;;;;;17.60;3.20;;;31.20;51.80;;;;;;5113684;28;20489;-64
2022/07/01 10:06:07;;;;;;;16.92;3.65;;;31.30;52.60;;;;;;5113771;28;20039;-63
2022/07/01 10:09:02;;;;;;;17.42;3.22;;;31.40;52.00;;;;;;5113884;28;20038;-65
2022/07/01 10:12:01;;;;;;;14.45;3.20;;;31.40;51.70;;;;;;5113958;28;20028;-64
2022/07/01 10:14:28;;;;;;;17.60;3.30;;;31.50;51.90;;;;;;5113582;28;20043;-63
2022/07/01 10:16:54;;;;;;;11.82;3.05;;;31.60;50.40;;;;;;5113789;28;20101;-63
2022/07/01 10:19:30;;;;;;;15.35;2.80;;;31.60;50.00;;;;;;5113549;28;20481;-64
2022/07/01 10:22:19;;;;;;;13.07;3.22;;;31.70;50.20;;;;;;5113801;28;20077;-64
2022/07/01 10:24:46;;;;;;;13.02;3.10;;;31.70;50.20;;;;;;5114100;28;20046;-63
2022/07/01 10:27:24;;;;;;;12.40;2.83;;;31.80;49.60;;;;;;5113670;28;20534;-64
2022/07/01 10:30:13;;;;;;;13.70;2.67;;;31.80;49.00;;;;;;5113615;28;20038;-64
2022/07/01 10:32:48;;;;;;;13.07;2.60;;;31.80;49.00;;;;;;5113421;28;20032;-64
2022/07/01 10:35:14;;;;;;;12.32;2.88;;;31.90;48.90;;;;;;5113529;28;20397;-63
2022/07/01 10:38:01;;;;;;;13.15;2.85;;;32.00;49.20;;;;;;5113354;28;20058;-63
2022/07/01 10:40:48;;;;;;;17.65;2.90;;;32.00;48.10;;;;;;5113219;28;20031;-64
2022/07/01 10:43:34;;;;;;;14.93;3.20;;;32.10;46.50;;;;;;5113224;28;20031;-64
2022/07/01 10:46:00;;;;;;;16.48;3.42;;;32.10;46.10;;;;;;5113258;28;20040;-64
2022/07/01 10:48:30;;;;;;;17.63;3.25;;;32.10;46.10;;;;;;5113472;28;20050;-64
2022/07/01 10:50:55;;;;;;;13.52;3.03;;;32.20;46.70;;;;;;5113434;28;20531;-64
2022/07/01 10:53:21;;;;;;;18.35;2.97;;;32.20;47.00;;;;;;5113295;28;20028;-65
2022/07/01 10:55:52;;;;;;;17.42;3.30;;;32.30;47.30;;;;;;5113103;28;20493;-65
2022/07/01 10:58:20;;;;;;;16.55;3.25;;;32.30;46.90;;;;;;5113462;28;20370;-65
2022/07/01 11:00:50;;;;;;;15.25;3.22;;;32.40;47.00;;;;;;5113666;28;20094;-67
2022/07/01 11:03:21;;;;;;;16.60;3.10;;;32.50;46.80;;;;;;5113270;28;20031;-64
2022/07/01 11:05:49;;;;;;;;;;;32.50;46.20;;;;;;5113567;28;20046;-64
2022/07/01 11:08:16;;;;;;;17.13;2.65;;;32.50;45.30;;;;;;5113202;28;19907;-64
2022/07/01 11:10:42;;;;;;;15.40;3.30;;;32.50;47.00;;;;;;5113399;28;20031;-65
2022/07/01 11:13:11;;;;;;;17.25;3.65;;;32.60;46.90;;;;;;5111654;28;20085;-64
2022/07/01 11:15:38;;;;;;;18.08;3.75;;;32.60;46.90;;;;;;5110003;28;20048;-64
2022/07/01 11:18:04;;;;;;;16.75;3.55;;;32.70;46.50;;;;;;5110960;28;20031;-64
2022/07/01 11:20:31;;;;;;;18.90;4.53;;;32.70;47.00;;;;;;5112952;28;20044;-65
2022/07/01 11:22:57;;;;;;;18.20;3.67;;;32.70;46.60;;;;;;5112817;28;20039;-64
2022/07/01 11:25:23;;;;;;;18.80;3.58;;;32.70;46.60;;;;;;5112959;28;20407;-64
2022/07/01 11:27:51;;;;;;;14.82;3.33;;;32.80;46.50;;;;;;5115500;27;20033;-64
2022/07/01 11:30:18;;;;;;;14.20;2.80;;;32.80;46.20;;;;;;5116855;28;20046;-64
2022/07/01 11:32:47;;;;;;;18.08;3.10;;;32.80;46.20;;;;;;5116621;28;20096;-64
2022/07/01 11:41:06;;;;;;;19.45;3.45;;;32.80;47.80;;;;;;5113597;28;20043;-64
2022/07/01 11:43:35;;;;;;;20.67;3.80;;;32.90;49.90;;;;;;5113405;28;20043;-63
2022/07/01 11:46:03;;;;;;;19.55;3.67;;;32.90;51.70;;;;;;5115710;28;20032;-62
2022/07/01 11:48:36;;;;;;;21.75;4.95;;;32.90;52.60;;;;;;5116590;28;20492;-63
2022/07/01 11:51:08;;;;;;;25.25;4.72;;;33.00;52.20;;;;;;5116293;27;20068;-64
2022/07/01 11:53:34;;;;;;;26.77;3.80;;;33.00;53.50;;;;;;5116144;28;20062;-64
2022/07/01 11:56:00;;;;;;;25.80;4.88;;;33.00;53.90;;;;;;5116003;27;20063;-64
2022/07/01 11:58:52;;;;;;;18.98;4.00;;;33.00;54.70;;;;;;5116209;28;20099;-64
2022/07/01 12:01:25;;;;;;;22.70;4.95;;;33.00;55.70;;;;;;5116147;28;20027;-64
2022/07/01 12:03:51;;;;;;;28.73;4.07;;;33.00;56.90;;;;;;5116044;28;20516;-64
2022/07/01 12:06:19;;;;;;;32.20;5.68;;;33.00;57.60;;;;;;5116022;28;20055;-64
2022/07/01 12:08:46;;;;;;;31.55;4.80;;;33.00;58.00;;;;;;5115922;28;20031;-64
2022/07/01 12:11:13;;;;;;;30.48;6.47;;;33.00;58.70;;;;;;5115853;28;20027;-64
2022/07/01 12:13:38;;;;;;;28.25;6.00;;;33.00;58.50;;;;;;5116308;28;20038;-64
2022/07/01 12:16:09;;;;;;;31.80;5.72;;;33.00;59.00;;;;;;5115802;28;20051;-64
2022/07/01 12:18:35;;;;;;;30.03;5.63;;;32.90;59.50;;;;;;5115720;28;20024;-63
2022/07/01 12:21:01;;;;;;;33.08;6.30;;;32.90;59.60;;;;;;5115525;28;20032;-64
2022/07/01 12:23:26;;;;;;;39.22;6.50;;;32.90;59.60;;;;;;5116063;28;20092;-64
2022/07/01 12:25:54;;;;;;;37.17;7.18;;;32.80;59.50;;;;;;5115722;28;20032;-64
2022/07/01 12:28:31;;;;;;;33.20;6.90;;;32.70;60.30;;;;;;5115842;28;20063;-64
2022/07/01 12:31:04;;;;;;;44.20;8.07;;;32.70;62.00;;;;;;5115787;28;20514;-64
2022/07/01 12:33:30;;;;;;;41.20;7.60;;;32.70;62.10;;;;;;5115631;28;20043;-64
2022/07/01 12:35:56;;;;;;;38.05;7.15;;;32.60;62.50;;;;;;5115413;28;20039;-64
2022/07/01 12:38:22;;;;;;;40.22;6.85;;;32.50;60.70;;;;;;5115435;28;20038;-63
2022/07/01 12:40:47;;;;;;;42.08;7.90;;;32.40;61.90;;;;;;5115241;28;20118;-64
2022/07/01 12:43:31;;;;;;;46.67;7.70;;;32.40;62.20;;;;;;5115501;28;20074;-64
2022/07/01 12:46:01;;;;;;;48.17;9.35;;;32.30;61.90;;;;;;5115354;28;20046;-64
2022/07/01 12:48:27;;;;;;;42.88;7.72;;;32.20;62.60;;;;;;5115223;28;20118;-63
2022/07/01 12:50:57;;;;;;;42.78;9.70;;;32.20;62.90;;;;;;5115215;28;20032;-64
2022/07/01 12:53:25;;;;;;;43.97;9.40;;;32.10;63.60;;;;;;5115380;28;20426;-64
2022/07/01 12:55:56;;;;;;;46.08;7.82;;;32.10;63.50;;;;;;5115299;28;20524;-63
2022/07/01 12:58:26;;;;;;;45.55;8.07;;;32.00;63.70;;;;;;5114773;28;20031;-62